Time;durP1;ratioP1;P1;durP2;ratioP2;P2;SDS_P1;SDS_P2;PMS_P1;PMS_P2;Temp;Humidity;BMP_temperature;BMP_pressure;BME280_temperature;BME280_humidity;BME280_pressure;Samples;Min_cycle;Max_cycle;Signal;HPM_P1;HPM_P2
2022/12/14 00:01:34;;;;;;;21.42;8.23;;;;;;;;;;5006621;28;20064;-82
2022/12/14 00:04:00;;;;;;;20.75;8.20;;;;;;;;;;5006143;28;20030;-81
2022/12/14 00:06:30;;;;;;;9.80;5.28;;;;;;;;;;5014576;28;20438;-82
2022/12/14 00:08:58;;;;;;;13.90;6.95;;;;;;;;;;5006690;28;20026;-82
2022/12/14 00:11:24;;;;;;;18.67;8.05;;;;;;;;;;5001818;28;20045;-82
2022/12/14 00:13:57;;;;;;;20.50;6.30;;;;;;;;;;5007720;28;20050;-82
2022/12/14 00:16:26;;;;;;;17.10;8.35;;;;;;;;;;5017088;28;20038;-82
2022/12/14 00:18:54;;;;;;;21.15;7.97;;;;;;;;;;5012155;28;20663;-82
2022/12/14 00:21:20;;;;;;;16.58;7.70;;;;;;;;;;5020200;28;20525;-82
2022/12/14 00:23:47;;;;;;;15.32;6.68;;;;;;;;;;5026559;28;20109;-82
2022/12/14 00:26:21;;;;;;;22.90;7.60;;;;;;;;;;5012421;28;20030;-82
2022/12/14 00:28:48;;;;;;;15.82;6.40;;;;;;;;;;5015807;28;20425;-82
2022/12/14 00:31:14;;;;;;;17.88;7.78;;;;;;;;;;5010096;28;20030;-82
2022/12/14 00:33:39;;;;;;;11.35;6.43;;;;;;;;;;5006298;28;20112;-82
2022/12/14 00:36:06;;;;;;;16.88;7.63;;;;;;;;;;5014304;28;20025;-82
2022/12/14 00:38:31;;;;;;;20.95;7.85;;;;;;;;;;5021157;28;20041;-82
2022/12/14 00:40:57;;;;;;;20.38;7.45;;;;;;;;;;5007563;28;20034;-81
2022/12/14 00:43:23;;;;;;;22.38;7.45;;;;;;;;;;5016561;28;20046;-82
2022/12/14 00:45:52;;;;;;;14.35;7.07;;;;;;;;;;5009375;28;20025;-82
2022/12/14 00:48:22;;;;;;;19.75;8.70;;;;;;;;;;5023929;28;20595;-82
2022/12/14 00:50:49;;;;;;;20.98;7.55;;;;;;;;;;5004403;28;20030;-82
2022/12/14 00:53:14;;;;;;;19.10;7.40;;;;;;;;;;5015022;28;20527;-83
2022/12/14 00:55:42;;;;;;;20.75;7.63;;;;;;;;;;5025728;28;20037;-82
2022/12/14 00:58:10;;;;;;;18.67;7.07;;;;;;;;;;5021254;28;20764;-82
2022/12/14 01:00:35;;;;;;;15.55;6.13;;;;;;;;;;5005827;28;20022;-80
2022/12/14 01:03:01;;;;;;;16.63;7.53;;;;;;;;;;5030606;28;20107;-82
2022/12/14 01:05:27;;;;;;;18.20;7.65;;;;;;;;;;5006136;28;20030;-82
2022/12/14 01:07:52;;;;;;;13.63;6.43;;;;;;;;;;5006077;28;20501;-81
2022/12/14 01:10:17;;;;;;;17.05;7.65;;;;;;;;;;5009672;28;20025;-82
2022/12/14 01:12:43;;;;;;;16.52;8.65;;;;;;;;;;5017051;28;20029;-82
2022/12/14 01:15:09;;;;;;;17.50;7.05;;;;;;;;;;5021344;28;20097;-82
2022/12/14 01:17:34;;;;;;;18.63;8.82;;;;;;;;;;5017802;28;20029;-82
2022/12/14 01:19:59;;;;;;;19.13;7.50;;;;;;;;;;5023329;28;20033;-82
2022/12/14 01:22:25;;;;;;;13.65;7.05;;;;;;;;;;5035620;28;20045;-81
2022/12/14 01:24:50;;;;;;;18.27;8.07;;;;;;;;;;5012002;28;20600;-81
2022/12/14 01:27:15;;;;;;;17.58;7.07;;;;;;;;;;5023358;28;20014;-82
2022/12/14 01:29:41;;;;;;;16.27;6.72;;;;;;;;;;5025520;28;20029;-82
2022/12/14 01:32:06;;;;;;;14.20;6.90;;;;;;;;;;5020720;28;20043;-81
2022/12/14 01:34:32;;;;;;;19.10;7.43;;;;;;;;;;5023856;28;20033;-81
2022/12/14 01:36:57;;;;;;;17.35;7.70;;;;;;;;;;5008923;28;20041;-82
2022/12/14 01:39:22;;;;;;;18.15;7.45;;;;;;;;;;5005032;28;20105;-82
2022/12/14 01:41:51;;;;;;;22.88;6.28;;;;;;;;;;5004516;28;20041;-82
2022/12/14 01:44:16;;;;;;;21.48;7.80;;;;;;;;;;5005460;28;20030;-82
2022/12/14 01:47:24;;;;;;;12.07;6.45;;;;;;;;;;5011488;28;20091;-82
2022/12/14 01:49:56;;;;;;;16.83;6.43;;;;;;;;;;5002240;28;20470;-82
2022/12/14 01:52:36;;;;;;;18.70;7.67;;;;;;;;;;5005608;28;20038;-82
2022/12/14 01:55:13;;;;;;;17.83;6.75;;;;;;;;;;5012181;28;20514;-82
2022/12/14 01:57:51;;;;;;;20.85;7.38;;;;;;;;;;5014515;28;20060;-82
2022/12/14 02:00:17;;;;;;;12.75;6.03;;;;;;;;;;5014515;28;20376;-82
2022/12/14 02:03:16;;;;;;;14.27;6.18;;;;;;;;;;5038894;28;20045;-82
2022/12/14 02:05:54;;;;;;;23.05;7.20;;;;;;;;;;5001288;28;20466;-82
2022/12/14 02:08:22;;;;;;;14.90;6.82;;;;;;;;;;5001781;28;20046;-82
2022/12/14 02:10:49;;;;;;;17.33;6.45;;;;;;;;;;4999615;28;20030;-82
2022/12/14 02:13:22;;;;;;;15.70;7.70;;;;;;;;;;5010034;28;20458;-82
2022/12/14 02:15:49;;;;;;;20.95;7.75;;;;;;;;;;5033981;28;20052;-81
2022/12/14 02:18:19;;;;;;;14.93;7.60;;;;;;;;;;5022100;28;20028;-82
2022/12/14 02:21:16;;;;;;;14.25;7.03;;;;;;;;;;5038313;28;20426;-82
2022/12/14 02:24:06;;;;;;;16.25;6.78;;;;;;;;;;5020502;28;20064;-82
2022/12/14 02:26:59;;;;;;;15.48;7.10;;;;;;;;;;5031297;28;20038;-82
2022/12/14 02:29:43;;;;;;;14.48;5.97;;;;;;;;;;5020594;28;20046;-82
2022/12/14 02:32:25;;;;;;;12.68;7.03;;;;;;;;;;5021691;28;20578;-82
2022/12/14 02:35:03;;;;;;;14.40;5.68;;;;;;;;;;5037357;28;20111;-81
2022/12/14 02:38:16;;;;;;;19.27;6.80;;;;;;;;;;5024281;28;20065;-82
2022/12/14 02:41:06;;;;;;;14.38;5.53;;;;;;;;;;5040628;28;20036;-82
2022/12/14 02:43:42;;;;;;;18.23;8.02;;;;;;;;;;5023376;28;20045;-82
2022/12/14 02:46:30;;;;;;;11.50;6.30;;;;;;;;;;5019560;28;20037;-81
2022/12/14 02:48:58;;;;;;;16.95;7.55;;;;;;;;;;5015696;28;20041;-82
2022/12/14 02:51:53;;;;;;;15.20;7.20;;;;;;;;;;5024527;28;20034;-82
2022/12/14 02:54:30;;;;;;;15.85;6.50;;;;;;;;;;5010252;28;20581;-81
2022/12/14 02:57:06;;;;;;;17.90;7.35;;;;;;;;;;5015410;28;20429;-82
2022/12/14 02:59:32;;;;;;;16.05;6.93;;;;;;;;;;5028901;28;20056;-82
2022/12/14 03:02:00;;;;;;;21.80;7.45;;;;;;;;;;5024748;28;20029;-83
2022/12/14 03:04:26;;;;;;;15.48;6.35;;;;;;;;;;5013737;28;20534;-82
2022/12/14 03:07:01;;;;;;;15.43;7.57;;;;;;;;;;5022855;28;20018;-82
2022/12/14 03:09:29;;;;;;;13.25;6.80;;;;;;;;;;5028712;28;20269;-82
2022/12/14 03:12:00;;;;;;;16.60;6.53;;;;;;;;;;5018722;28;20046;-82
2022/12/14 03:14:30;;;;;;;12.05;6.55;;;;;;;;;;5007639;28;20133;-81
2022/12/14 03:17:02;;;;;;;18.65;5.97;;;;;;;;;;5007985;28;20042;-82
2022/12/14 03:19:41;;;;;;;16.08;6.13;;;;;;;;;;5007123;28;20122;-82
2022/12/14 03:22:13;;;;;;;14.57;7.75;;;;;;;;;;5020369;28;20422;-82
2022/12/14 03:24:48;;;;;;;17.25;6.03;;;;;;;;;;5018861;28;20025;-82
2022/12/14 03:27:19;;;;;;;13.20;6.85;;;;;;;;;;5033857;28;20022;-82
2022/12/14 03:29:51;;;;;;;14.30;6.13;;;;;;;;;;5024642;28;20458;-82
2022/12/14 03:32:20;;;;;;;12.85;6.47;;;;;;;;;;5011081;28;20052;-82
2022/12/14 03:34:52;;;;;;;16.30;6.25;;;;;;;;;;5027899;28;20044;-82
2022/12/14 03:37:49;;;;;;;19.73;7.43;;;;;;;;;;5026499;28;20052;-82
2022/12/14 03:40:15;;;;;;;17.80;6.38;;;;;;;;;;5028477;28;20091;-82
2022/12/14 03:43:01;;;;;;;17.05;6.78;;;;;;;;;;5023888;28;20025;-81
2022/12/14 03:45:42;;;;;;;15.40;6.05;;;;;;;;;;5020910;28;20473;-82
2022/12/14 03:48:17;;;;;;;15.27;6.22;;;;;;;;;;5028082;28;20064;-82
2022/12/14 03:51:01;;;;;;;18.08;7.25;;;;;;;;;;5028692;28;20124;-82
2022/12/14 03:53:32;;;;;;;16.05;6.97;;;;;;;;;;5029433;28;20048;-82
2022/12/14 03:56:10;;;;;;;17.55;7.35;;;;;;;;;;5028095;28;20049;-82
2022/12/14 03:58:40;;;;;;;14.90;6.72;;;;;;;;;;5027010;28;20116;-82
2022/12/14 04:01:15;;;;;;;23.45;7.07;;;;;;;;;;5013780;28;20580;-82
2022/12/14 04:03:47;;;;;;;14.70;6.55;;;;;;;;;;5021897;28;20034;-81
2022/12/14 04:06:48;;;;;;;18.55;6.90;;;;;;;;;;5028502;28;20018;-82
2022/12/14 04:09:29;;;;;;;14.57;6.75;;;;;;;;;;5042902;28;20041;-82
2022/12/14 04:20:44;;;;;;;14.02;6.70;;;;;;;;;;5017922;28;20044;-82
2022/12/14 04:26:01;;;;;;;16.48;7.10;;;;;;;;;;5014454;28;20065;-82
2022/12/14 04:26:04;;;;;;;12.88;6.53;;;;;;;;;;5008020;28;20089;-82
2022/12/14 04:31:40;;;;;;;11.07;6.00;;;;;;;;;;5007835;28;20048;-82
2022/12/14 04:34:09;;;;;;;14.98;6.25;;;;;;;;;;5020231;28;20034;-82
2022/12/14 04:36:41;;;;;;;16.25;6.32;;;;;;;;;;5019520;28;20065;-82
2022/12/14 04:39:12;;;;;;;17.27;7.00;;;;;;;;;;5006163;28;20061;-82
2022/12/14 04:41:43;;;;;;;15.68;6.10;;;;;;;;;;5006592;28;20033;-81
2022/12/14 04:44:15;;;;;;;13.02;6.68;;;;;;;;;;5017343;28;20045;-82
2022/12/14 04:46:41;;;;;;;18.08;7.00;;;;;;;;;;5016175;28;20042;-82
2022/12/14 04:49:24;;;;;;;16.02;7.35;;;;;;;;;;5026864;28;20064;-82
2022/12/14 04:52:13;;;;;;;11.65;6.75;;;;;;;;;;5041319;28;20029;-81
2022/12/14 04:54:45;;;;;;;16.50;6.90;;;;;;;;;;5017154;28;20026;-81
2022/12/14 04:57:26;;;;;;;13.07;6.43;;;;;;;;;;5026155;28;20498;-82
2022/12/14 04:59:51;;;;;;;18.33;7.45;;;;;;;;;;5027259;28;20041;-82
2022/12/14 05:02:53;;;;;;;17.20;7.18;;;;;;;;;;5025905;28;20059;-82
2022/12/14 05:05:35;;;;;;;12.95;5.97;;;;;;;;;;5032914;28;20392;-82
2022/12/14 05:08:16;;;;;;;13.43;5.93;;;;;;;;;;5031763;28;20037;-82
2022/12/14 05:11:07;;;;;;;13.48;6.25;;;;;;;;;;5019300;28;20038;-82
2022/12/14 05:13:42;;;;;;;13.00;6.30;;;;;;;;;;5010504;28;20049;-82
2022/12/14 05:16:08;;;;;;;15.45;6.30;;;;;;;;;;5041749;28;20041;-82
2022/12/14 05:18:34;;;;;;;13.93;6.53;;;;;;;;;;5042152;28;20029;-82
2022/12/14 05:21:00;;;;;;;13.10;6.03;;;;;;;;;;5042187;28;20042;-82
2022/12/14 05:23:25;;;;;;;12.43;6.30;;;;;;;;;;5021049;28;20044;-82
2022/12/14 05:25:50;;;;;;;18.58;6.18;;;;;;;;;;5018353;28;20033;-82
2022/12/14 05:28:16;;;;;;;12.57;6.43;;;;;;;;;;5014461;28;20629;-82
2022/12/14 05:30:41;;;;;;;16.33;6.63;;;;;;;;;;5027355;28;20021;-81
2022/12/14 05:33:15;;;;;;;14.70;6.03;;;;;;;;;;5023499;28;20028;-82
2022/12/14 05:35:40;;;;;;;17.00;7.38;;;;;;;;;;5006875;28;20103;-82
2022/12/14 05:38:05;;;;;;;13.20;6.28;;;;;;;;;;5014177;28;20049;-82
2022/12/14 05:40:31;;;;;;;16.02;6.50;;;;;;;;;;5006790;28;20137;-82
2022/12/14 05:43:07;;;;;;;17.08;6.75;;;;;;;;;;5005443;28;20041;-82
2022/12/14 05:45:32;;;;;;;14.13;7.15;;;;;;;;;;5026704;28;20430;-82
2022/12/14 05:47:57;;;;;;;12.70;6.13;;;;;;;;;;5026999;28;20034;-82
2022/12/14 05:50:23;;;;;;;20.58;8.20;;;;;;;;;;5026457;28;20114;-82
2022/12/14 05:52:50;;;;;;;20.55;7.72;;;;;;;;;;5025293;28;20044;-82
2022/12/14 05:55:15;;;;;;;15.07;5.97;;;;;;;;;;5017731;28;20052;-82
2022/12/14 05:57:41;;;;;;;16.00;7.00;;;;;;;;;;5005242;28;20030;-81
2022/12/14 06:00:07;;;;;;;15.93;6.43;;;;;;;;;;5006336;28;20034;-82
2022/12/14 06:02:32;;;;;;;17.35;6.55;;;;;;;;;;5004927;28;20042;-81
2022/12/14 06:04:58;;;;;;;20.23;8.07;;;;;;;;;;5029668;28;20037;-82
2022/12/14 06:07:23;;;;;;;17.17;6.60;;;;;;;;;;5005970;28;20057;-82
2022/12/14 06:09:48;;;;;;;16.95;6.50;;;;;;;;;;5005703;28;20115;-82
2022/12/14 06:12:14;;;;;;;14.40;7.07;;;;;;;;;;5007244;28;20076;-81
2022/12/14 06:14:39;;;;;;;14.70;6.68;;;;;;;;;;5021039;28;20053;-81
2022/12/14 06:17:04;;;;;;;21.48;7.65;;;;;;;;;;5020717;28;20045;-82
2022/12/14 06:19:29;;;;;;;20.15;7.60;;;;;;;;;;5006808;28;20038;-82
2022/12/14 06:21:55;;;;;;;19.98;7.60;;;;;;;;;;5006219;28;20065;-81
2022/12/14 06:24:20;;;;;;;19.10;7.40;;;;;;;;;;5007451;28;20034;-82
2022/12/14 06:26:45;;;;;;;29.67;8.60;;;;;;;;;;5005509;28;20031;-82
2022/12/14 06:29:15;;;;;;;21.95;8.18;;;;;;;;;;4988950;28;20192;-82
2022/12/14 06:31:41;;;;;;;23.17;8.15;;;;;;;;;;5000137;28;20049;-82
2022/12/14 06:34:07;;;;;;;13.18;6.50;;;;;;;;;;5009945;28;20034;-82
2022/12/14 06:36:34;;;;;;;18.63;7.50;;;;;;;;;;5018695;28;20048;-82
2022/12/14 06:39:11;;;;;;;22.10;9.15;;;;;;;;;;5026176;28;20040;-82
2022/12/14 06:41:37;;;;;;;20.13;8.00;;;;;;;;;;5026922;28;20033;-81
2022/12/14 06:44:05;;;;;;;19.15;7.05;;;;;;;;;;5020922;28;20975;-81
2022/12/14 06:46:30;;;;;;;15.73;7.25;;;;;;;;;;5025580;28;20037;-81
2022/12/14 06:48:56;;;;;;;19.10;7.50;;;;;;;;;;5029327;28;20034;-81
2022/12/14 06:51:23;;;;;;;14.30;6.88;;;;;;;;;;5042773;28;20116;-80
2022/12/14 06:53:50;;;;;;;16.05;7.25;;;;;;;;;;5018659;28;20906;-82
2022/12/14 06:56:17;;;;;;;16.27;8.30;;;;;;;;;;5026595;28;20041;-82
2022/12/14 06:58:43;;;;;;;16.67;7.95;;;;;;;;;;5029561;28;20029;-82
2022/12/14 07:01:14;;;;;;;19.42;7.72;;;;;;;;;;5029581;28;20087;-82
2022/12/14 07:03:40;;;;;;;15.65;6.90;;;;;;;;;;5028017;28;20022;-81
2022/12/14 07:06:06;;;;;;;13.57;6.20;;;;;;;;;;5019267;28;20522;-82
2022/12/14 07:08:33;;;;;;;17.33;8.35;;;;;;;;;;5028618;28;20068;-82
2022/12/14 07:11:04;;;;;;;18.38;7.05;;;;;;;;;;5027716;28;20388;-82
2022/12/14 07:13:29;;;;;;;19.02;8.02;;;;;;;;;;5023053;28;20049;-81
2022/12/14 07:15:56;;;;;;;20.10;8.48;;;;;;;;;;5016847;28;20037;-82
2022/12/14 07:18:21;;;;;;;18.33;7.30;;;;;;;;;;5027099;28;20025;-82
2022/12/14 07:20:57;;;;;;;20.83;7.72;;;;;;;;;;5028574;28;20029;-82
2022/12/14 07:23:24;;;;;;;15.10;6.72;;;;;;;;;;5019965;28;20029;-82
2022/12/14 07:25:49;;;;;;;17.35;7.57;;;;;;;;;;5028752;28;20026;-81
2022/12/14 07:28:15;;;;;;;16.77;6.72;;;;;;;;;;5028906;28;20065;-82
2022/12/14 07:30:40;;;;;;;15.13;6.35;;;;;;;;;;5026549;28;20022;-81
2022/12/14 07:33:05;;;;;;;13.30;6.35;;;;;;;;;;5029434;28;20129;-82
2022/12/14 07:35:31;;;;;;;13.45;6.88;;;;;;;;;;5009344;28;20038;-82
2022/12/14 07:37:56;;;;;;;18.23;7.78;;;;;;;;;;5008398;28;20041;-81
2022/12/14 07:40:21;;;;;;;18.45;6.70;;;;;;;;;;5009189;28;20096;-82
2022/12/14 07:42:49;;;;;;;18.83;7.97;;;;;;;;;;5026437;28;20084;-82
2022/12/14 07:45:14;;;;;;;14.27;6.50;;;;;;;;;;5024894;28;20119;-82
2022/12/14 07:47:39;;;;;;;17.52;7.45;;;;;;;;;;5022530;28;20116;-82
2022/12/14 07:50:05;;;;;;;11.95;7.57;;;;;;;;;;5023848;28;20077;-81
2022/12/14 07:52:31;;;;;;;15.93;7.20;;;;;;;;;;5015009;28;20469;-82
2022/12/14 07:54:56;;;;;;;15.68;7.00;;;;;;;;;;5034735;28;20026;-83
2022/12/14 07:57:21;;;;;;;14.52;6.47;;;;;;;;;;5010812;28;20037;-83
2022/12/14 07:59:48;;;;;;;19.38;6.93;;;;;;;;;;5027523;28;20088;-83
2022/12/14 08:02:13;;;;;;;15.07;6.57;;;;;;;;;;5019786;28;20049;-82
2022/12/14 08:04:38;;;;;;;20.80;8.32;;;;;;;;;;5019340;28;20037;-79
2022/12/14 08:07:04;;;;;;;15.05;8.27;;;;;;;;;;5026855;28;20033;-81
2022/12/14 08:09:29;;;;;;;17.60;7.75;;;;;;;;;;5027672;28;20626;-82
2022/12/14 08:11:54;;;;;;;15.60;6.93;;;;;;;;;;5014696;28;20092;-82
2022/12/14 08:14:20;;;;;;;18.63;7.00;;;;;;;;;;5020248;28;20052;-81
2022/12/14 08:16:47;;;;;;;17.98;7.35;;;;;;;;;;5042322;28;20629;-81
2022/12/14 08:19:13;;;;;;;15.30;5.95;;;;;;;;;;5018530;28;20030;-82
2022/12/14 08:21:39;;;;;;;15.45;6.75;;;;;;;;;;4986892;28;20057;-81
2022/12/14 08:24:05;;;;;;;19.70;8.00;;;;;;;;;;5012965;28;20013;-82
2022/12/14 08:26:30;;;;;;;16.48;6.60;;;;;;;;;;5011851;28;20060;-81
2022/12/14 08:28:55;;;;;;;18.15;7.00;;;;;;;;;;5013582;28;20434;-81
2022/12/14 08:31:23;;;;;;;15.45;6.75;;;;;;;;;;5011173;28;20042;-81
2022/12/14 08:33:49;;;;;;;16.05;6.13;;;;;;;;;;5015695;28;20124;-82
2022/12/14 08:36:23;;;;;;;17.45;6.90;;;;;;;;;;5014417;28;20140;-81
2022/12/14 08:38:53;;;;;;;17.05;7.05;;;;;;;;;;5014956;28;20033;-81
2022/12/14 08:41:19;;;;;;;17.98;7.07;;;;;;;;;;5029005;28;20049;-81
2022/12/14 08:43:48;;;;;;;15.52;7.00;;;;;;;;;;5011444;28;20105;-82
2022/12/14 08:46:13;;;;;;;13.73;6.47;;;;;;;;;;5005309;28;20032;-81
2022/12/14 08:48:38;;;;;;;16.23;6.88;;;;;;;;;;5015318;28;20116;-81
2022/12/14 08:51:06;;;;;;;16.85;7.07;;;;;;;;;;5018913;28;20111;-81
2022/12/14 08:53:32;;;;;;;17.77;8.07;;;;;;;;;;5009911;28;20103;-81
2022/12/14 08:55:58;;;;;;;13.32;5.40;;;;;;;;;;5010956;28;20038;-81
2022/12/14 08:58:25;;;;;;;15.55;7.28;;;;;;;;;;4993838;28;20530;-84
2022/12/14 09:00:59;;;;;;;16.33;7.55;;;;;;;;;;5000856;28;20017;-81
2022/12/14 09:03:24;;;;;;;19.45;7.70;;;;;;;;;;5022426;28;20045;-76
2022/12/14 09:05:49;;;;;;;23.50;9.05;;;;;;;;;;5005309;28;20119;-85
2022/12/14 09:08:14;;;;;;;18.10;9.10;;;;;;;;;;5015599;28;20029;-84
2022/12/14 09:10:40;;;;;;;16.38;8.05;;;;;;;;;;5016119;28;20053;-85
2022/12/14 09:13:05;;;;;;;16.88;8.05;;;;;;;;;;5014363;28;20047;-85
2022/12/14 09:15:30;;;;;;;18.00;7.93;;;;;;;;;;5041782;28;20041;-84
2022/12/14 09:17:57;;;;;;;18.23;7.43;;;;;;;;;;5042299;28;20080;-84
2022/12/14 09:20:22;;;;;;;20.23;8.02;;;;;;;;;;5012911;28;20124;-80
2022/12/14 09:22:50;;;;;;;17.20;6.78;;;;;;;;;;5021023;28;20029;-84
2022/12/14 09:25:15;;;;;;;18.92;8.30;;;;;;;;;;5006791;28;20038;-84
2022/12/14 09:27:40;;;;;;;18.35;7.90;;;;;;;;;;5005908;28;20040;-83
2022/12/14 09:30:06;;;;;;;19.15;7.97;;;;;;;;;;5007591;28;20025;-84
2022/12/14 09:32:31;;;;;;;17.25;7.85;;;;;;;;;;5005170;28;20042;-83
2022/12/14 09:34:58;;;;;;;17.17;8.35;;;;;;;;;;5005930;28;20034;-83
2022/12/14 09:37:24;;;;;;;22.13;7.50;;;;;;;;;;5005921;28;20094;-83
2022/12/14 09:39:49;;;;;;;19.88;8.27;;;;;;;;;;5005484;28;20427;-85
2022/12/14 09:42:55;;;;;;;19.35;8.73;;;;;;;;;;5009207;28;20282;-83
2022/12/14 09:45:27;;;;;;;17.58;6.75;;;;;;;;;;4985468;28;20063;-83
2022/12/14 09:48:04;;;;;;;21.27;8.25;;;;;;;;;;5016843;28;20742;-83
2022/12/14 09:50:30;;;;;;;13.73;7.55;;;;;;;;;;5015421;28;20052;-84
2022/12/14 09:53:00;;;;;;;14.30;6.93;;;;;;;;;;5025710;28;20045;-84
2022/12/14 09:55:30;;;;;;;19.63;6.80;;;;;;;;;;5006186;28;20605;-81
2022/12/14 09:58:19;;;;;;;23.88;8.32;;;;;;;;;;4985220;28;20084;-83
2022/12/14 10:01:12;;;;;;;21.27;7.18;;;;;;;;;;4991738;28;20077;-84
2022/12/14 10:03:59;;;;;;;14.52;7.55;;;;;;;;;;5010513;28;20042;-84
2022/12/14 10:06:43;;;;;;;17.45;8.68;;;;;;;;;;5028789;28;20399;-83
2022/12/14 10:09:17;;;;;;;16.15;7.57;;;;;;;;;;5030394;28;20927;-84
2022/12/14 10:12:03;;;;;;;16.52;8.13;;;;;;;;;;5021081;28;20036;-84
2022/12/14 10:14:43;;;;;;;15.50;8.27;;;;;;;;;;5008758;28;20155;-84
2022/12/14 10:17:15;;;;;;;20.30;9.13;;;;;;;;;;5008161;28;20049;-85
2022/12/14 10:19:47;;;;;;;23.02;8.35;;;;;;;;;;5023094;28;20549;-85
2022/12/14 10:22:17;;;;;;;20.73;7.85;;;;;;;;;;5036353;28;20769;-85
2022/12/14 10:24:59;;;;;;;19.33;9.18;;;;;;;;;;5026857;28;20046;-85
2022/12/14 10:27:28;;;;;;;22.20;7.75;;;;;;;;;;5005044;28;20121;-84
2022/12/14 10:30:12;;;;;;;18.23;8.57;;;;;;;;;;5005541;28;20376;-84
2022/12/14 10:32:39;;;;;;;30.77;10.93;;;;;;;;;;5007689;28;20049;-82
2022/12/14 10:35:18;;;;;;;27.80;10.60;;;;;;;;;;5003991;28;20307;-86
2022/12/14 10:37:50;;;;;;;11.27;6.88;;;;;;;;;;5011300;28;20072;-86
2022/12/14 10:40:28;;;;;;;19.20;7.85;;;;;;;;;;5019780;28;20644;-86
2022/12/14 10:43:12;;;;;;;15.93;8.05;;;;;;;;;;5018136;28;20037;-86
2022/12/14 10:45:48;;;;;;;18.13;8.75;;;;;;;;;;5009466;28;20042;-84
2022/12/14 10:48:28;;;;;;;23.15;9.20;;;;;;;;;;5007247;28;20101;-84
2022/12/14 10:51:08;;;;;;;23.15;10.60;;;;;;;;;;5012312;28;20037;-88
2022/12/14 10:53:42;;;;;;;15.32;5.78;;;;;;;;;;5010552;28;20037;-86
2022/12/14 10:56:17;;;;;;;13.70;6.22;;;;;;;;;;5016999;28;20029;-87
2022/12/14 10:59:20;;;;;;;24.50;9.05;;;;;;;;;;5026880;28;20582;-81
2022/12/14 11:02:15;;;;;;;21.10;8.77;;;;;;;;;;5016171;28;20041;-87
2022/12/14 11:04:59;;;;;;;13.57;6.88;;;;;;;;;;5002743;28;20843;-85
2022/12/14 11:07:36;;;;;;;24.00;7.70;;;;;;;;;;4999632;28;20061;-85
2022/12/14 11:10:22;;;;;;;28.30;11.95;;;;;;;;;;4992051;28;20096;-87
2022/12/14 11:13:06;;;;;;;21.38;8.90;;;;;;;;;;5007910;28;20182;-86
2022/12/14 11:15:38;;;;;;;26.95;11.45;;;;;;;;;;5021081;28;20094;-86
2022/12/14 11:18:15;;;;;;;23.17;11.45;;;;;;;;;;5000792;28;21265;-86
2022/12/14 11:20:58;;;;;;;30.55;9.90;;;;;;;;;;5010494;28;20053;-86
2022/12/14 11:23:35;;;;;;;23.30;10.05;;;;;;;;;;4994613;28;20548;-85
2022/12/14 11:26:04;;;;;;;26.48;10.35;;;;;;;;;;4997233;28;20576;-85
2022/12/14 11:28:35;;;;;;;21.90;9.98;;;;;;;;;;4996711;28;20123;-86
2022/12/14 11:31:18;;;;;;;29.33;11.82;;;;;;;;;;5001503;28;20047;-86
2022/12/14 11:33:50;;;;;;;30.67;12.93;;;;;;;;;;5015298;28;20049;-87
2022/12/14 11:36:39;;;;;;;31.38;11.68;;;;;;;;;;5003196;28;20048;-87
2022/12/14 11:39:11;;;;;;;19.58;9.15;;;;;;;;;;4996750;28;21450;-87
2022/12/14 11:41:40;;;;;;;27.08;10.88;;;;;;;;;;5032342;28;20057;-86
2022/12/14 11:44:14;;;;;;;26.13;10.82;;;;;;;;;;5021524;28;20116;-87
2022/12/14 11:46:57;;;;;;;26.67;11.38;;;;;;;;;;5044505;28;20099;-86
2022/12/14 11:49:38;;;;;;;26.20;10.45;;;;;;;;;;5044026;28;20041;-86
2022/12/14 11:52:08;;;;;;;28.02;10.98;;;;;;;;;;5044688;28;20041;-85
2022/12/14 11:54:38;;;;;;;25.73;11.90;;;;;;;;;;5028154;28;20039;-87
2022/12/14 11:57:16;;;;;;;28.00;11.20;;;;;;;;;;5028364;28;20665;-87
2022/12/14 11:59:48;;;;;;;22.48;10.00;;;;;;;;;;5029863;28;20057;-86
2022/12/14 12:02:21;;;;;;;21.17;10.25;;;;;;;;;;5030209;28;20034;-87
2022/12/14 12:04:53;;;;;;;21.30;9.27;;;;;;;;;;5009244;28;20045;-87
2022/12/14 12:07:27;;;;;;;22.27;10.50;;;;;;;;;;4988560;28;20522;-87
2022/12/14 12:09:53;;;;;;;30.85;11.85;;;;;;;;;;5004332;28;20034;-87
2022/12/14 12:12:20;;;;;;;23.98;11.15;;;;;;;;;;4992773;28;20030;-87
2022/12/14 12:14:46;;;;;;;24.55;9.25;;;;;;;;;;5014190;28;20507;-87
2022/12/14 12:17:17;;;;;;;25.08;9.10;;;;;;;;;;5044079;28;20057;-87
2022/12/14 12:19:45;;;;;;;26.85;9.50;;;;;;;;;;5028486;28;20659;-86
2022/12/14 12:22:13;;;;;;;17.50;9.48;;;;;;;;;;5027006;28;20029;-86
2022/12/14 12:24:54;;;;;;;19.17;9.55;;;;;;;;;;5028200;28;20072;-86
2022/12/14 12:27:19;;;;;;;24.08;9.77;;;;;;;;;;5015124;28;20148;-86
2022/12/14 12:29:55;;;;;;;26.67;10.32;;;;;;;;;;5008154;28;20098;-86
2022/12/14 12:32:25;;;;;;;23.48;8.82;;;;;;;;;;5006584;28;20049;-86
2022/12/14 12:35:12;;;;;;;17.90;7.32;;;;;;;;;;5008941;28;20044;-87
2022/12/14 12:37:45;;;;;;;22.77;8.60;;;;;;;;;;5012163;28;20407;-84
2022/12/14 12:40:23;;;;;;;14.52;7.38;;;;;;;;;;5025595;28;20037;-86
2022/12/14 12:42:54;;;;;;;14.38;7.10;;;;;;;;;;5021198;28;20041;-85
2022/12/14 12:45:26;;;;;;;13.88;8.02;;;;;;;;;;5043015;28;20933;-84
2022/12/14 12:48:10;;;;;;;17.08;8.45;;;;;;;;;;5036703;28;20033;-86
2022/12/14 12:50:43;;;;;;;15.48;7.35;;;;;;;;;;5031539;28;20045;-85
2022/12/14 12:53:34;;;;;;;18.70;7.90;;;;;;;;;;5011404;28;20053;-85
2022/12/14 12:56:10;;;;;;;13.40;6.88;;;;;;;;;;5005814;28;20038;-85
2022/12/14 12:58:38;;;;;;;14.00;7.00;;;;;;;;;;5006532;28;20057;-86
2022/12/14 13:01:19;;;;;;;23.75;10.07;;;;;;;;;;5005738;28;20400;-86
2022/12/14 13:03:50;;;;;;;24.35;11.25;;;;;;;;;;5003421;28;20122;-86
2022/12/14 13:06:22;;;;;;;21.38;9.38;;;;;;;;;;4998540;28;20116;-85
2022/12/14 13:08:51;;;;;;;20.45;8.50;;;;;;;;;;5026263;28;20489;-86
2022/12/14 13:11:23;;;;;;;23.20;9.85;;;;;;;;;;5027122;28;20033;-85
2022/12/14 13:13:52;;;;;;;25.58;9.57;;;;;;;;;;5009703;28;20053;-84
2022/12/14 13:16:21;;;;;;;25.80;10.07;;;;;;;;;;4994514;28;20057;-86
2022/12/14 13:18:49;;;;;;;21.85;8.60;;;;;;;;;;5005850;28;20191;-86
2022/12/14 13:21:33;;;;;;;18.88;8.25;;;;;;;;;;5010259;28;20025;-86
2022/12/14 13:23:59;;;;;;;18.08;8.70;;;;;;;;;;5015617;28;20030;-86
2022/12/14 13:26:59;;;;;;;25.10;9.90;;;;;;;;;;5039034;28;20029;-85
2022/12/14 13:29:50;;;;;;;23.25;9.90;;;;;;;;;;5026459;28;20092;-85
2022/12/14 13:32:56;;;;;;;24.45;9.65;;;;;;;;;;5012341;28;20029;-87
2022/12/14 13:35:27;;;;;;;22.15;9.02;;;;;;;;;;5021503;28;20038;-85
2022/12/14 13:38:25;;;;;;;28.83;10.55;;;;;;;;;;5004826;28;20042;-86
2022/12/14 13:41:05;;;;;;;24.00;10.35;;;;;;;;;;4997690;28;20634;-85
2022/12/14 13:43:39;;;;;;;30.30;12.15;;;;;;;;;;5025679;28;20125;-85
2022/12/14 13:46:10;;;;;;;25.73;9.73;;;;;;;;;;5026371;28;20065;-86
2022/12/14 13:48:40;;;;;;;28.58;10.48;;;;;;;;;;5026096;28;20040;-85
2022/12/14 13:51:08;;;;;;;21.30;10.70;;;;;;;;;;5042291;28;20025;-82
2022/12/14 13:53:41;;;;;;;33.17;11.35;;;;;;;;;;5015631;28;20108;-86
2022/12/14 13:56:07;;;;;;;21.42;9.95;;;;;;;;;;5025476;28;20033;-85
2022/12/14 13:58:40;;;;;;;25.15;10.80;;;;;;;;;;5021222;28;20064;-86
2022/12/14 14:01:10;;;;;;;20.10;8.75;;;;;;;;;;5012367;28;20053;-85
2022/12/14 14:03:36;;;;;;;28.45;11.50;;;;;;;;;;5020537;28;20049;-85
2022/12/14 14:06:10;;;;;;;26.45;10.20;;;;;;;;;;5024475;28;20418;-85
2022/12/14 14:08:37;;;;;;;28.17;9.93;;;;;;;;;;5026131;28;20044;-84
2022/12/14 14:11:20;;;;;;;29.67;10.10;;;;;;;;;;5025872;28;20033;-84
2022/12/14 14:13:49;;;;;;;24.40;10.27;;;;;;;;;;5022393;28;20136;-84
2022/12/14 14:16:19;;;;;;;21.00;10.52;;;;;;;;;;5008123;28;20052;-84
2022/12/14 14:19:15;;;;;;;18.95;9.57;;;;;;;;;;5016774;28;20625;-83
2022/12/14 14:22:19;;;;;;;21.58;9.48;;;;;;;;;;4992118;28;20065;-82
2022/12/14 14:24:56;;;;;;;22.63;10.25;;;;;;;;;;5009484;28;20037;-83
2022/12/14 14:27:24;;;;;;;26.65;8.45;;;;;;;;;;5009706;28;20052;-85
2022/12/14 14:29:57;;;;;;;24.15;10.68;;;;;;;;;;5023674;28;20028;-85
2022/12/14 14:32:33;;;;;;;20.58;8.98;;;;;;;;;;5009259;28;20721;-85
2022/12/14 14:35:01;;;;;;;22.83;8.88;;;;;;;;;;5011929;28;20809;-85
2022/12/14 14:37:36;;;;;;;21.92;9.27;;;;;;;;;;5018643;28;20033;-84
2022/12/14 14:40:10;;;;;;;22.75;9.65;;;;;;;;;;5025929;28;20026;-85
2022/12/14 14:42:47;;;;;;;24.05;10.23;;;;;;;;;;5024749;28;20053;-85
2022/12/14 14:46:00;;;;;;;24.05;9.38;;;;;;;;;;5015310;28;20101;-85
2022/12/14 14:48:33;;;;;;;20.40;9.50;;;;;;;;;;5024345;28;20159;-86
2022/12/14 14:51:06;;;;;;;37.53;10.10;;;;;;;;;;5029184;28;20534;-85
2022/12/14 14:53:39;;;;;;;23.27;10.30;;;;;;;;;;5027581;28;20030;-85
2022/12/14 14:56:46;;;;;;;28.07;9.23;;;;;;;;;;5023782;28;20096;-86
2022/12/14 14:59:21;;;;;;;24.10;8.27;;;;;;;;;;5012134;28;20300;-86
2022/12/14 15:02:03;;;;;;;23.65;11.77;;;;;;;;;;5023826;28;20045;-87
2022/12/14 15:04:47;;;;;;;27.40;10.73;;;;;;;;;;5008026;28;20049;-85
2022/12/14 15:07:17;;;;;;;20.88;9.20;;;;;;;;;;5009683;28;20034;-85
2022/12/14 15:09:47;;;;;;;19.85;9.93;;;;;;;;;;4999298;28;20088;-86
2022/12/14 15:12:27;;;;;;;34.58;10.00;;;;;;;;;;5025256;28;20411;-86